createdAt,value
2023-03-29T00:00:42.327Z,99200.38
2023-03-29T00:05:44.880Z,99202.75
2023-03-29T00:10:49.521Z,99201.75
2023-03-29T00:15:51.187Z,99192.88
2023-03-29T00:40:11.762Z,99183.66
2023-03-29T00:45:13.336Z,99180.09
2023-03-29T00:50:33.192Z,99175.97
2023-03-29T00:55:39.296Z,99170.75
2023-03-29T01:00:48.742Z,99163.72
2023-03-29T01:05:57.811Z,99156.03
2023-03-29T01:11:18.077Z,99152.41
2023-03-29T01:16:22.120Z,99155.72
2023-03-29T01:21:44.423Z,99153.31
2023-03-29T01:27:09.569Z,99150.84
2023-03-29T01:32:23.419Z,99143.88
2023-03-29T01:37:37.655Z,99149.53
2023-03-29T01:43:04.569Z,99143.41
2023-03-29T01:48:19.366Z,99137.88
2023-03-29T01:53:42.277Z,99144.84
2023-03-29T01:58:53.170Z,99152.47
2023-03-29T02:04:02.853Z,99154.78
2023-03-29T02:09:05.064Z,99149.72
2023-03-29T02:14:07.527Z,99149.91
2023-03-29T02:19:10.060Z,99142.44
2023-03-29T02:24:15.365Z,99142.09
2023-03-29T02:29:17.186Z,99143.75
2023-03-29T02:34:19.271Z,99150.03
2023-03-29T02:39:22.975Z,99153.41
2023-03-29T02:44:28.522Z,99152.59
2023-03-29T02:49:30.441Z,99153.53
2023-03-29T02:54:32.977Z,99144.84
2023-03-29T02:59:35.025Z,99148.19
2023-03-29T03:04:36.633Z,99150.97
2023-03-29T03:09:38.267Z,99154.22
2023-03-29T03:14:40.534Z,99166.56
2023-03-29T03:19:45.017Z,99156.38
2023-03-29T03:24:46.630Z,99156.47
2023-03-29T03:29:48.708Z,99149.41
2023-03-29T03:34:50.633Z,99136.31
2023-03-29T03:39:52.218Z,99143.91
2023-03-29T03:44:54.222Z,99147.56
2023-03-29T03:49:55.847Z,99145.06
2023-03-29T03:54:57.454Z,99129.63
2023-03-29T03:59:59.108Z,99125.53
2023-03-29T04:05:03.414Z,99128.50
2023-03-29T04:10:06.317Z,99134.28
2023-03-29T04:15:09.733Z,99125.69
2023-03-29T04:20:12.418Z,99135.47
2023-03-29T04:25:14.324Z,99131.22
2023-03-29T04:30:17.027Z,99126.84
2023-03-29T04:35:18.660Z,99125.34
2023-03-29T04:40:21.000Z,99111.31
2023-03-29T04:45:22.845Z,99081.47
2023-03-29T04:50:24.633Z,99085.56
2023-03-29T04:55:26.590Z,99089.94
2023-03-29T05:00:28.717Z,99100.19
2023-03-29T05:11:55.801Z,99108.06
2023-03-29T05:16:57.488Z,99103.72
2023-03-29T05:21:59.184Z,99120.13
2023-03-29T05:27:01.306Z,99118.19
2023-03-29T05:32:03.035Z,99115.06
2023-03-29T05:37:04.771Z,99111.13
2023-03-29T05:42:06.559Z,99115.50
2023-03-29T05:47:08.157Z,99110.19
2023-03-29T06:05:37.012Z,99123.03
2023-03-29T06:10:38.938Z,99139.63
2023-03-29T06:15:40.575Z,99125.66
2023-03-29T06:20:42.692Z,99117.81
2023-03-29T06:25:45.697Z,99122.63
2023-03-29T06:30:48.336Z,99122.13
2023-03-29T06:35:50.275Z,99106.81
2023-03-29T06:40:52.806Z,99122.94
2023-03-29T06:45:55.047Z,99119.06
2023-03-29T06:50:56.991Z,99107.75
2023-03-29T06:55:59.671Z,99112.88
2023-03-29T07:01:05.192Z,99112.91
2023-03-29T07:06:10.271Z,99114.16
2023-03-29T07:11:14.239Z,99101.75
2023-03-29T07:16:16.361Z,99101.56
2023-03-29T07:21:18.022Z,99101.34
2023-03-29T07:26:29.778Z,99108.34
2023-03-29T07:31:35.917Z,99114.53
2023-03-29T07:36:38.678Z,99120.06
2023-03-29T07:41:40.710Z,99122.75
2023-03-29T07:46:43.403Z,99121.09
2023-03-29T07:51:45.064Z,99128.28
2023-03-29T07:56:48.049Z,99118.56
2023-03-29T08:01:50.554Z,99100.34
2023-03-29T08:06:53.131Z,99113.91
2023-03-29T08:11:54.967Z,99109.47
2023-03-29T08:16:56.820Z,99121.88
2023-03-29T08:21:58.983Z,99120.69
2023-03-29T08:27:00.833Z,99114.31
2023-03-29T08:32:03.086Z,99110.84
2023-03-29T08:37:05.138Z,99112.38
2023-03-29T08:42:31.378Z,99104.94
2023-03-29T08:47:39.844Z,99115.72
2023-03-29T08:52:47.119Z,99108.59
2023-03-29T08:57:51.732Z,99102.41
2023-03-29T09:02:54.493Z,99095.25
2023-03-29T09:07:57.019Z,99088.72
2023-03-29T09:13:34.892Z,99076.31
2023-03-29T09:19:06.466Z,99083.59
2023-03-29T09:24:29.689Z,99092.38
2023-03-29T09:29:31.351Z,99083.91
2023-03-29T09:34:49.362Z,99075.41
2023-03-29T09:39:53.319Z,99078.06
2023-03-29T09:45:02.055Z,99089.31
2023-03-29T09:50:27.673Z,99080.81
2023-03-29T09:55:35.282Z,99081.22
2023-03-29T10:00:37.325Z,99080.19
2023-03-29T10:05:39.271Z,99079.94
2023-03-29T10:10:41.592Z,99072.84
2023-03-29T10:15:43.494Z,99065.28
2023-03-29T10:20:45.480Z,99057.13
2023-03-29T10:25:47.522Z,99061.69
2023-03-29T10:31:00.195Z,99054.28
2023-03-29T10:36:07.002Z,99060.06
2023-03-29T10:41:12.989Z,99051.78
2023-03-29T10:46:44.227Z,99045.78
2023-03-29T10:51:47.275Z,99036.53
2023-03-29T10:56:58.928Z,99023.66
2023-03-29T11:02:17.168Z,99013.56
2023-03-29T11:07:19.939Z,99019.72
2023-03-29T11:12:52.277Z,99029.59
2023-03-29T11:18:06.030Z,99019.72
2023-03-29T11:23:27.560Z,99019.13
2023-03-29T11:28:47.981Z,99023.81
2023-03-29T11:34:11.814Z,99005.84
2023-03-29T11:39:38.861Z,99013.56
2023-03-29T11:44:41.859Z,98997.34
2023-03-29T11:50:03.344Z,98987.94
2023-03-29T11:55:13.852Z,98984.53
2023-03-29T12:00:22.248Z,98979.81
2023-03-29T12:05:37.414Z,98973.06
2023-03-29T12:11:10.068Z,98963.34
2023-03-29T12:16:34.634Z,98948.56
2023-03-29T12:21:36.860Z,98961.63
2023-03-29T12:26:44.858Z,98950.25
2023-03-29T12:32:01.708Z,98953.88
2023-03-29T12:37:27.937Z,98956.16
2023-03-29T12:42:29.898Z,98943.00
2023-03-29T12:47:43.793Z,98924.28
2023-03-29T12:52:45.535Z,98921.94
2023-03-29T12:58:06.684Z,98915.59
2023-03-29T13:03:27.666Z,98918.00
2023-03-29T13:08:44.506Z,98902.22
2023-03-29T13:13:50.725Z,98904.84
2023-03-29T13:19:14.663Z,98912.09
2023-03-29T13:24:41.382Z,98898.28
2023-03-29T13:30:11.928Z,98889.63
2023-03-29T13:35:31.408Z,98880.94
2023-03-29T13:40:47.024Z,98882.53
2023-03-29T13:46:05.280Z,98864.38
2023-03-29T13:51:19.068Z,98850.78
2023-03-29T13:56:30.084Z,98854.81
2023-03-29T14:01:53.557Z,98854.44
2023-03-29T14:06:56.921Z,98855.22
2023-03-29T14:12:00.370Z,98845.84
2023-03-29T14:17:02.284Z,98844.59
2023-03-29T14:22:12.528Z,98833.78
2023-03-29T14:27:14.398Z,98838.97
2023-03-29T14:32:18.645Z,98826.03
2023-03-29T14:37:29.036Z,98827.31
2023-03-29T14:42:30.752Z,98824.41
2023-03-29T14:47:33.530Z,98817.63
2023-03-29T14:52:35.488Z,98819.59
2023-03-29T14:57:38.100Z,98810.28
2023-03-29T15:02:50.000Z,98805.00
2023-03-29T15:07:56.091Z,98804.06
2023-03-29T15:12:58.246Z,98812.78
2023-03-29T15:18:00.900Z,98802.28
2023-03-29T15:23:08.631Z,98797.44
2023-03-29T15:28:32.838Z,98804.06
2023-03-29T15:33:40.450Z,98795.78
2023-03-29T15:38:45.211Z,98790.03
2023-03-29T15:43:47.172Z,98784.25
2023-03-29T15:48:48.808Z,98775.94
2023-03-29T15:53:50.449Z,98774.13
2023-03-29T15:58:52.362Z,98767.13
2023-03-29T16:03:54.036Z,98759.38
2023-03-29T16:08:57.226Z,98754.03
2023-03-29T16:13:59.427Z,98757.13
2023-03-29T16:19:01.102Z,98766.19
2023-03-29T16:24:04.066Z,98764.75
2023-03-29T16:29:05.768Z,98765.03
2023-03-29T16:34:09.456Z,98777.09
2023-03-29T16:39:13.141Z,98771.34
2023-03-29T16:44:18.101Z,98757.94
2023-03-29T16:49:20.791Z,98767.94
2023-03-29T16:54:25.940Z,98768.66
2023-03-29T16:59:27.809Z,98771.03
2023-03-29T17:04:29.820Z,98761.78
2023-03-29T17:09:32.271Z,98763.59
2023-03-29T17:14:33.906Z,98784.25
2023-03-29T17:19:36.172Z,98774.06
2023-03-29T17:24:38.026Z,98779.81
2023-03-29T17:29:39.903Z,98772.09
2023-03-29T17:34:41.793Z,98772.31
2023-03-29T17:39:43.880Z,98785.16
2023-03-29T17:44:48.745Z,98782.25
2023-03-29T17:49:52.218Z,98803.28
2023-03-29T17:54:54.587Z,98792.41
2023-03-29T17:59:56.922Z,98803.91
2023-03-29T18:05:02.013Z,98822.38
2023-03-29T18:10:05.264Z,98827.66
2023-03-29T18:15:08.617Z,98815.78
2023-03-29T18:20:11.928Z,98828.34
2023-03-29T18:25:18.229Z,98844.28
2023-03-29T18:30:20.990Z,98847.06
2023-03-29T18:35:25.662Z,98853.59
2023-03-29T18:40:28.454Z,98857.31
2023-03-29T18:45:31.070Z,98850.75
2023-03-29T18:50:33.336Z,98857.16
2023-03-29T18:55:35.981Z,98846.28
2023-03-29T19:00:39.402Z,98841.00
2023-03-29T19:05:41.631Z,98843.88
2023-03-29T19:10:44.263Z,98833.31
2023-03-29T19:15:48.212Z,98838.28
2023-03-29T19:20:56.988Z,98841.81
2023-03-29T19:26:03.416Z,98842.09
2023-03-29T19:31:06.462Z,98836.28
2023-03-29T19:36:09.110Z,98835.47
2023-03-29T19:41:12.922Z,98835.44
2023-03-29T19:46:16.454Z,98846.34
2023-03-29T19:51:18.801Z,98843.41
2023-03-29T19:56:23.644Z,98844.06
2023-03-29T20:01:27.526Z,98843.81
2023-03-29T20:06:29.446Z,98842.41
2023-03-29T20:11:31.563Z,98842.78
2023-03-29T20:16:34.949Z,98846.13
2023-03-29T20:21:40.102Z,98843.00
2023-03-29T20:26:42.276Z,98839.16
2023-03-29T20:31:45.549Z,98836.22
2023-03-29T20:36:47.355Z,98838.84
2023-03-29T20:41:50.767Z,98833.47
2023-03-29T20:47:06.819Z,98824.81
2023-03-29T20:52:17.543Z,98818.47
2023-03-29T20:57:21.117Z,98817.69
2023-03-29T21:02:23.955Z,98804.75
2023-03-29T21:07:26.635Z,98806.69
2023-03-29T21:12:28.480Z,98818.06
2023-03-29T21:17:30.414Z,98819.09
2023-03-29T21:22:34.825Z,98822.75
2023-03-29T21:27:37.221Z,98820.19
2023-03-29T21:32:39.059Z,98815.84
2023-03-29T21:37:40.865Z,98813.63
2023-03-29T21:42:42.492Z,98815.75
2023-03-29T21:47:44.196Z,98800.00
2023-03-29T21:52:45.981Z,98806.84
2023-03-29T21:57:50.414Z,98794.84
2023-03-29T22:02:52.297Z,98793.09
2023-03-29T22:07:54.061Z,98800.47
2023-03-29T22:12:57.293Z,98792.13
2023-03-29T22:18:00.365Z,98799.66
2023-03-29T22:23:03.282Z,98793.81
2023-03-29T22:28:05.055Z,98814.31
2023-03-29T22:33:06.981Z,98780.19
2023-03-29T22:38:08.737Z,98775.47
2023-03-29T22:43:10.375Z,98774.66
2023-03-29T22:48:12.218Z,98766.91
2023-03-29T22:53:14.263Z,98768.41
2023-03-29T22:58:16.280Z,98768.09
2023-03-29T23:03:18.331Z,98754.13
2023-03-29T23:08:20.130Z,98767.47
2023-03-29T23:13:26.036Z,98763.16
2023-03-29T23:18:29.601Z,98775.63
2023-03-29T23:23:31.776Z,98775.47
2023-03-29T23:28:34.686Z,98774.66
2023-03-29T23:33:38.742Z,98766.38
2023-03-29T23:38:42.325Z,98763.47
2023-03-29T23:43:47.069Z,98750.06
2023-03-29T23:48:50.274Z,98747.13
2023-03-29T23:53:52.120Z,98742.09
2023-03-29T23:58:54.347Z,98742.91
